createdAt,value
2022-08-09T00:00:25.600Z,84.70
2022-08-09T00:02:58.973Z,84.80
2022-08-09T00:06:19.834Z,85.90
2022-08-09T00:08:32.358Z,85.20
2022-08-09T00:11:24.294Z,85.30
2022-08-09T00:13:58.505Z,87.00
2022-08-09T00:16:38.339Z,86.80
2022-08-09T00:19:12.718Z,86.70
2022-08-09T00:21:55.827Z,87.10
2022-08-09T00:24:31.760Z,87.00
2022-08-09T00:27:04.923Z,88.00
2022-08-09T00:29:39.540Z,88.60
2022-08-09T00:32:30.648Z,89.40
2022-08-09T00:35:03.842Z,89.40
2022-08-09T00:37:36.567Z,89.20
2022-08-09T00:40:16.610Z,89.60
2022-08-09T00:44:14.337Z,90.70
2022-08-09T00:45:50.441Z,90.70
2022-08-09T00:48:26.755Z,91.00
2022-08-09T00:51:11.964Z,91.00
2022-08-09T00:53:46.927Z,91.70
2022-08-09T00:56:24.745Z,91.50
2022-08-09T00:58:57.952Z,91.70
2022-08-09T01:01:44.896Z,91.80
2022-08-09T01:04:25.731Z,91.80
2022-08-09T01:07:13.927Z,92.60
2022-08-09T01:10:18.648Z,93.00
2022-08-09T01:13:22.350Z,93.10
2022-08-09T01:15:57.495Z,93.30
2022-08-09T01:18:32.514Z,93.40
2022-08-09T01:21:17.815Z,93.60
2022-08-09T01:24:04.863Z,93.90
2022-08-09T01:26:56.689Z,94.40
2022-08-09T01:29:41.395Z,94.60
2022-08-09T01:32:48.610Z,94.70
2022-08-09T01:35:38.571Z,95.30
2022-08-09T01:38:17.055Z,95.70
2022-08-09T01:41:05.689Z,96.10
2022-08-09T01:43:51.778Z,96.50
2022-08-09T01:46:32.470Z,96.70
2022-08-09T01:49:12.775Z,97.00
2022-08-09T01:51:53.987Z,97.30
2022-08-09T01:54:50.740Z,97.70
2022-08-09T01:57:40.081Z,98.40
2022-08-09T02:00:34.833Z,98.80
2022-08-09T02:03:11.365Z,99.40
2022-08-09T02:05:53.631Z,99.90
2022-08-09T02:08:57.780Z,99.90
2022-08-09T02:11:42.943Z,99.90
2022-08-09T02:14:25.164Z,99.90
2022-08-09T02:17:15.238Z,99.90
2022-08-09T02:19:53.083Z,99.90
2022-08-09T02:22:41.889Z,99.90
2022-08-09T02:25:24.100Z,99.90
2022-08-09T02:28:05.471Z,99.90
2022-08-09T02:30:47.742Z,99.90
2022-08-09T02:33:38.420Z,99.90
2022-08-09T02:36:54.118Z,99.90
2022-08-09T02:39:41.863Z,99.90
2022-08-09T02:42:20.125Z,99.90
2022-08-09T02:45:06.711Z,99.90
2022-08-09T02:47:57.362Z,99.90
2022-08-09T02:50:56.540Z,99.90
2022-08-09T02:53:53.136Z,99.90
2022-08-09T02:56:34.590Z,99.90
2022-08-09T02:59:13.829Z,99.90
2022-08-09T03:02:06.097Z,99.90
2022-08-09T03:04:42.010Z,99.90
2022-08-09T03:07:18.407Z,99.90
2022-08-09T03:09:54.489Z,99.90
2022-08-09T03:12:30.785Z,99.90
2022-08-09T03:15:06.775Z,99.90
2022-08-09T03:17:43.843Z,99.90
2022-08-09T03:20:17.417Z,99.90
2022-08-09T03:22:56.965Z,99.90
2022-08-09T03:26:03.167Z,99.90
2022-08-09T03:28:27.139Z,99.90
2022-08-09T03:31:09.917Z,99.90
2022-08-09T03:33:54.383Z,99.90
2022-08-09T03:36:28.375Z,99.90
2022-08-09T03:39:01.264Z,99.90
2022-08-09T03:41:45.703Z,99.90
2022-08-09T03:44:27.749Z,99.90
2022-08-09T03:47:04.991Z,99.90
2022-08-09T03:49:58.308Z,99.90
2022-08-09T03:52:32.772Z,99.90
2022-08-09T03:55:09.820Z,99.90
2022-08-09T03:57:53.567Z,99.90
2022-08-09T04:00:31.228Z,99.90
2022-08-09T04:03:04.003Z,99.90
2022-08-09T04:05:40.286Z,99.90
2022-08-09T04:08:13.443Z,99.90
2022-08-09T04:10:48.010Z,99.90
2022-08-09T04:13:26.420Z,99.90
2022-08-09T04:16:19.902Z,99.90
2022-08-09T04:18:54.194Z,99.90
2022-08-09T04:21:27.076Z,99.90
2022-08-09T04:24:02.359Z,99.90
2022-08-09T04:26:38.157Z,99.90
2022-08-09T04:29:15.607Z,99.90
2022-08-09T04:31:48.615Z,99.90
2022-08-09T04:34:30.491Z,99.90
2022-08-09T04:37:04.690Z,99.90
2022-08-09T04:39:40.699Z,99.90
2022-08-09T04:42:15.899Z,99.90
2022-08-09T04:44:51.386Z,99.90
2022-08-09T04:47:27.739Z,99.90
2022-08-09T04:50:19.624Z,99.90
2022-08-09T04:52:57.345Z,99.90
2022-08-09T04:55:39.627Z,99.90
2022-08-09T04:58:15.074Z,99.90
2022-08-09T05:00:49.494Z,99.90
2022-08-09T05:03:40.007Z,99.90
2022-08-09T05:06:26.916Z,99.90
2022-08-09T05:09:01.430Z,99.90
2022-08-09T05:11:35.539Z,99.90
2022-08-09T05:14:09.036Z,99.90
2022-08-09T05:16:58.379Z,99.90
2022-08-09T05:19:44.951Z,99.90
2022-08-09T05:22:33.355Z,99.90
2022-08-09T05:25:12.502Z,99.90
2022-08-09T05:27:48.265Z,99.90
2022-08-09T05:30:22.903Z,99.90
2022-08-09T05:32:56.144Z,99.90
2022-08-09T05:35:29.092Z,99.90
2022-08-09T05:38:04.880Z,99.90
2022-08-09T05:40:38.752Z,99.90
2022-08-09T05:43:11.552Z,99.90
2022-08-09T05:45:55.656Z,99.90
2022-08-09T05:48:32.904Z,99.90
2022-08-09T05:51:30.156Z,99.90
2022-08-09T05:53:59.637Z,99.90
2022-08-09T05:56:33.491Z,99.90
2022-08-09T05:59:07.325Z,99.90
2022-08-09T06:01:43.613Z,99.90
2022-08-09T06:04:16.600Z,99.90
2022-08-09T06:06:56.539Z,99.90
2022-08-09T06:09:54.188Z,99.90
2022-08-09T06:12:22.614Z,99.90
2022-08-09T06:15:01.570Z,99.90
2022-08-09T06:17:40.389Z,99.90
2022-08-09T06:20:13.783Z,99.90
2022-08-09T06:22:51.338Z,99.90
2022-08-09T06:25:24.387Z,99.90
2022-08-09T06:27:57.417Z,99.90
2022-08-09T06:30:30.163Z,99.90
2022-08-09T06:33:29.911Z,99.90
2022-08-09T06:35:58.625Z,99.90
2022-08-09T06:38:37.428Z,99.90
2022-08-09T06:41:18.183Z,99.90
2022-08-09T06:43:53.109Z,99.70
2022-08-09T06:46:39.579Z,99.40
2022-08-09T06:49:16.078Z,98.70
2022-08-09T06:51:55.698Z,98.30
2022-08-09T06:54:29.002Z,98.20
2022-08-09T06:57:01.753Z,97.50
2022-08-09T07:00:53.931Z,97.40
2022-08-09T07:02:29.742Z,96.60
2022-08-09T07:05:05.436Z,96.90
2022-08-09T07:08:00.986Z,96.90
2022-08-09T07:10:34.766Z,95.70
2022-08-09T07:13:27.185Z,94.70
2022-08-09T07:16:41.316Z,94.00
2022-08-09T07:18:56.838Z,93.60
2022-08-09T07:21:30.995Z,93.40
2022-08-09T07:24:08.031Z,92.90
2022-08-09T07:26:41.092Z,93.00
2022-08-09T07:29:14.083Z,93.10
2022-08-09T07:31:48.093Z,92.70
2022-08-09T07:34:21.405Z,92.20
2022-08-09T07:36:58.760Z,92.40
2022-08-09T07:39:42.134Z,91.80
2022-08-09T07:42:15.630Z,91.40
2022-08-09T07:44:51.210Z,91.30
2022-08-09T07:47:26.396Z,90.80
2022-08-09T07:50:08.047Z,91.30
2022-08-09T07:52:42.928Z,90.90
2022-08-09T07:55:17.272Z,90.50
2022-08-09T07:57:52.775Z,89.30
2022-08-09T08:00:35.606Z,89.60
2022-08-09T08:03:11.527Z,89.80
2022-08-09T08:05:54.051Z,89.40
2022-08-09T08:09:02.066Z,88.50
2022-08-09T08:12:10.553Z,87.50
2022-08-09T08:14:16.863Z,87.80
2022-08-09T08:17:00.714Z,88.00
2022-08-09T08:19:41.759Z,88.20
2022-08-09T08:22:17.233Z,86.70
2022-08-09T08:24:57.534Z,85.90
2022-08-09T08:27:40.581Z,85.30
2022-08-09T08:30:14.105Z,85.00
2022-08-09T08:32:52.692Z,85.60
2022-08-09T08:35:28.226Z,83.90
2022-08-09T08:38:11.795Z,83.60
2022-08-09T08:40:45.004Z,84.90
2022-08-09T08:43:23.965Z,82.70
2022-08-09T08:46:10.040Z,84.10
2022-08-09T08:48:57.429Z,81.90
2022-08-09T08:51:41.500Z,81.90
2022-08-09T08:54:20.157Z,81.10
2022-08-09T08:56:57.572Z,81.00
2022-08-09T08:59:44.571Z,79.90
2022-08-09T09:02:30.872Z,78.90
2022-08-09T09:05:10.137Z,79.10
2022-08-09T09:07:50.939Z,78.10
2022-08-09T09:10:27.291Z,78.50
2022-08-09T09:13:09.529Z,78.50
2022-08-09T09:15:49.255Z,78.50
2022-08-09T09:18:24.712Z,75.50
2022-08-09T09:20:58.023Z,74.00
2022-08-09T09:23:49.744Z,73.90
2022-08-09T09:26:35.012Z,72.00
2022-08-09T09:29:10.975Z,70.70
2022-08-09T09:32:01.828Z,70.60
2022-08-09T09:34:39.268Z,71.80
2022-08-09T09:37:32.193Z,70.30
2022-08-09T09:40:07.363Z,68.50
2022-08-09T09:42:43.123Z,68.60
2022-08-09T09:45:26.155Z,69.70
2022-08-09T09:48:03.908Z,68.20
2022-08-09T09:50:49.657Z,68.00
2022-08-09T09:53:57.269Z,66.00
2022-08-09T09:56:33.876Z,65.40
2022-08-09T09:59:10.950Z,64.90
2022-08-09T10:01:59.805Z,64.30
2022-08-09T10:04:32.969Z,64.00
2022-08-09T10:07:20.332Z,63.10
2022-08-09T10:09:58.743Z,62.40
2022-08-09T10:12:43.557Z,63.90
2022-08-09T10:15:50.709Z,62.70
2022-08-09T10:19:05.289Z,60.80
2022-08-09T10:21:50.674Z,61.40
2022-08-09T10:24:25.421Z,62.80
2022-08-09T10:27:16.985Z,61.00
2022-08-09T10:30:29.963Z,58.60
2022-08-09T10:32:51.531Z,58.60
2022-08-09T10:35:24.785Z,58.10
2022-08-09T10:38:06.511Z,58.40
2022-08-09T10:40:59.557Z,59.20
2022-08-09T10:43:36.066Z,59.40
2022-08-09T10:46:55.070Z,57.80
2022-08-09T10:49:54.249Z,57.60
2022-08-09T10:53:01.882Z,58.70
2022-08-09T10:55:58.561Z,61.90
2022-08-09T10:58:39.497Z,62.70
2022-08-09T11:03:18.908Z,65.80
2022-08-09T11:04:31.322Z,65.10
2022-08-09T11:07:05.284Z,63.60
2022-08-09T11:09:38.293Z,62.50
2022-08-09T11:15:33.672Z,63.50
2022-08-09T11:18:13.071Z,60.60
2022-08-09T11:20:50.189Z,57.60
2022-08-09T11:23:30.139Z,56.70
2022-08-09T11:26:04.084Z,55.30
2022-08-09T11:28:56.228Z,55.70
2022-08-09T11:31:49.934Z,55.50
2022-08-09T11:34:43.983Z,68.60
2022-08-09T11:37:27.957Z,61.40
2022-08-09T11:40:10.033Z,58.90
2022-08-09T11:42:48.758Z,57.70
2022-08-09T11:45:37.779Z,56.80
2022-08-09T11:48:25.191Z,59.10
2022-08-09T11:51:21.342Z,55.50
2022-08-09T11:54:27.631Z,55.50
2022-08-09T11:57:47.524Z,55.20
2022-08-09T12:00:33.369Z,62.80
2022-08-09T12:03:50.424Z,66.00
2022-08-09T12:06:12.757Z,64.40
2022-08-09T12:08:56.805Z,63.00
2022-08-09T12:11:37.845Z,63.80
2022-08-09T12:14:40.977Z,60.20
2022-08-09T12:17:28.029Z,61.30
2022-08-09T12:20:34.519Z,59.80
2022-08-09T12:23:07.594Z,59.60
2022-08-09T12:25:49.491Z,59.40
2022-08-09T12:29:11.993Z,61.90
2022-08-09T12:31:58.177Z,60.80
2022-08-09T12:34:32.389Z,62.00
2022-08-09T12:37:21.381Z,60.40
2022-08-09T12:40:17.997Z,60.20
2022-08-09T12:42:53.171Z,61.40
2022-08-09T12:45:33.519Z,62.60
2022-08-09T12:48:31.005Z,63.80
2022-08-09T12:51:04.748Z,60.70
2022-08-09T12:53:41.241Z,62.90
2022-08-09T12:56:40.125Z,63.60
2022-08-09T12:59:20.365Z,63.60
2022-08-09T13:01:59.295Z,63.40
2022-08-09T13:04:38.085Z,76.50
2022-08-09T13:07:19.285Z,65.50
2022-08-09T13:10:04.641Z,64.30
2022-08-09T13:13:09.743Z,69.20
2022-08-09T13:16:02.023Z,62.90
2022-08-09T13:18:53.831Z,67.10
2022-08-09T13:22:35.666Z,64.80
2022-08-09T13:24:44.625Z,68.30
2022-08-09T13:27:26.261Z,63.30
2022-08-09T13:30:49.255Z,63.70
2022-08-09T13:32:58.552Z,64.90
2022-08-09T13:35:34.600Z,69.90
2022-08-09T13:38:54.349Z,67.40
2022-08-09T13:41:55.145Z,64.30
2022-08-09T13:44:17.102Z,64.00
2022-08-09T13:47:27.766Z,64.40
2022-08-09T13:49:57.532Z,61.70
2022-08-09T13:52:34.624Z,60.80
2022-08-09T13:55:09.108Z,60.90
2022-08-09T13:57:55.992Z,63.40
2022-08-09T14:00:36.587Z,61.50
2022-08-09T14:03:58.170Z,63.30
2022-08-09T14:06:19.531Z,60.20
2022-08-09T14:08:59.358Z,59.80
2022-08-09T14:11:32.219Z,60.90
2022-08-09T14:14:25.737Z,60.20
2022-08-09T14:17:00.930Z,60.60
2022-08-09T14:19:34.601Z,61.00
2022-08-09T14:22:07.577Z,57.70
2022-08-09T14:24:53.456Z,58.30
2022-08-09T14:27:27.222Z,59.00
2022-08-09T14:30:36.533Z,58.10
2022-08-09T14:33:01.171Z,59.00
2022-08-09T14:35:52.359Z,59.00
2022-08-09T14:38:26.336Z,59.60
2022-08-09T14:41:04.273Z,59.40
2022-08-09T14:43:53.441Z,59.50
2022-08-09T14:46:54.752Z,60.60
2022-08-09T14:49:23.542Z,59.80
2022-08-09T14:51:58.855Z,60.90
2022-08-09T14:54:32.287Z,61.50
2022-08-09T14:57:07.998Z,60.70
2022-08-09T14:59:45.495Z,60.30
2022-08-09T15:02:21.606Z,62.90
2022-08-09T15:04:54.559Z,63.20
2022-08-09T15:07:27.540Z,62.60
2022-08-09T15:10:10.757Z,62.40
2022-08-09T15:12:47.191Z,63.80
2022-08-09T15:15:21.048Z,63.90
2022-08-09T15:17:54.784Z,63.60
2022-08-09T15:21:57.883Z,63.00
2022-08-09T15:24:02.108Z,63.00
2022-08-09T15:26:19.266Z,63.20
2022-08-09T15:29:05.138Z,61.50
2022-08-09T15:31:41.712Z,63.40
2022-08-09T15:34:33.265Z,61.30
2022-08-09T15:37:37.685Z,62.60
2022-08-09T15:40:22.333Z,62.10
2022-08-09T15:42:58.463Z,64.00
2022-08-09T15:45:51.765Z,64.20
2022-08-09T15:48:28.862Z,62.70
2022-08-09T15:51:30.437Z,64.90
2022-08-09T15:54:04.780Z,62.50
2022-08-09T15:56:42.543Z,64.60
2022-08-09T15:59:17.613Z,65.10
2022-08-09T16:01:51.363Z,67.00
2022-08-09T16:04:24.221Z,66.00
2022-08-09T16:07:02.239Z,65.80
2022-08-09T16:09:57.472Z,66.20
2022-08-09T16:12:31.103Z,65.70
2022-08-09T16:15:05.906Z,65.70
2022-08-09T16:17:59.215Z,65.90
2022-08-09T16:20:32.757Z,66.60
2022-08-09T16:23:05.716Z,64.80
2022-08-09T16:25:40.872Z,64.80
2022-08-09T16:28:13.944Z,64.80
2022-08-09T16:30:58.574Z,64.40
2022-08-09T16:33:35.078Z,64.00
2022-08-09T16:36:13.068Z,64.60
2022-08-09T16:38:51.697Z,65.50
2022-08-09T16:42:02.973Z,65.00
2022-08-09T16:44:19.505Z,65.70
2022-08-09T16:46:55.100Z,64.50
2022-08-09T16:50:31.899Z,65.40
2022-08-09T16:52:28.017Z,66.10
2022-08-09T16:55:00.941Z,66.90
2022-08-09T16:58:07.942Z,68.50
2022-08-09T17:00:27.151Z,68.00
2022-08-09T17:03:00.195Z,65.70
2022-08-09T17:06:07.239Z,64.30
2022-08-09T17:08:47.005Z,64.80
2022-08-09T17:11:32.783Z,64.20
2022-08-09T17:14:25.701Z,65.00
2022-08-09T17:17:25.915Z,65.20
2022-08-09T17:20:28.624Z,64.20
2022-08-09T17:22:53.493Z,65.30
2022-08-09T17:25:30.518Z,66.50
2022-08-09T17:28:06.016Z,65.60
2022-08-09T17:30:39.732Z,63.00
2022-08-09T17:33:22.585Z,63.50
2022-08-09T17:35:56.845Z,64.90
2022-08-09T17:38:34.276Z,65.00
2022-08-09T17:41:09.900Z,65.90
2022-08-09T17:43:47.047Z,65.70
2022-08-09T17:46:35.807Z,66.30
2022-08-09T17:49:11.309Z,66.00
2022-08-09T17:51:52.329Z,65.70
2022-08-09T17:54:29.552Z,65.80
2022-08-09T17:57:02.715Z,66.60
2022-08-09T17:59:37.997Z,66.80
2022-08-09T18:02:19.678Z,67.40
2022-08-09T18:04:58.565Z,66.80
2022-08-09T18:07:31.589Z,67.10
2022-08-09T18:10:07.740Z,66.80
2022-08-09T18:13:39.306Z,68.00
2022-08-09T18:16:05.123Z,67.70
2022-08-09T18:18:32.578Z,67.10
2022-08-09T18:21:19.336Z,66.80
2022-08-09T18:24:10.692Z,66.10
2022-08-09T18:26:49.403Z,65.80
2022-08-09T18:30:37.883Z,65.90
2022-08-09T18:32:19.095Z,66.60
2022-08-09T18:34:52.190Z,66.20
2022-08-09T18:37:47.841Z,67.50
2022-08-09T18:40:18.423Z,66.10
2022-08-09T18:43:00.177Z,66.20
2022-08-09T18:46:50.005Z,66.40
2022-08-09T18:48:30.203Z,66.30
2022-08-09T18:51:05.750Z,67.20
2022-08-09T18:53:56.936Z,66.30
2022-08-09T18:56:31.499Z,67.20
2022-08-09T18:59:05.692Z,66.90
2022-08-09T19:01:43.475Z,66.70
2022-08-09T19:04:34.625Z,66.80
2022-08-09T19:07:08.185Z,66.80
2022-08-09T19:10:16.759Z,66.10
2022-08-09T19:13:20.388Z,68.00
2022-08-09T19:15:56.890Z,67.20
2022-08-09T19:18:35.799Z,66.50
2022-08-09T19:21:11.700Z,67.60
2022-08-09T19:24:35.954Z,69.50
2022-08-09T19:26:38.414Z,67.80
2022-08-09T19:29:18.203Z,68.40
2022-08-09T19:31:53.722Z,68.80
2022-08-09T19:34:36.792Z,68.40
2022-08-09T19:37:16.904Z,68.90
2022-08-09T19:40:05.114Z,68.40
2022-08-09T19:42:38.909Z,69.40
2022-08-09T19:45:12.914Z,68.80
2022-08-09T19:47:45.980Z,69.70
2022-08-09T19:50:49.587Z,69.10
2022-08-09T19:53:12.541Z,70.10
2022-08-09T19:56:02.746Z,71.10
2022-08-09T19:58:38.379Z,69.70
2022-08-09T20:01:11.884Z,70.60
2022-08-09T20:04:25.217Z,71.40
2022-08-09T20:06:37.856Z,71.30
2022-08-09T20:09:44.662Z,70.70
2022-08-09T20:12:06.021Z,71.40
2022-08-09T20:14:50.188Z,71.30
2022-08-09T20:17:26.111Z,71.20
2022-08-09T20:20:05.675Z,71.50
2022-08-09T20:22:42.890Z,72.50
2022-08-09T20:25:22.462Z,71.00
2022-08-09T20:27:56.150Z,71.20
2022-08-09T20:30:29.136Z,71.10
2022-08-09T20:33:02.876Z,71.30
2022-08-09T20:35:39.753Z,72.20
2022-08-09T20:38:27.589Z,72.00
2022-08-09T20:41:03.213Z,71.70
2022-08-09T20:43:38.812Z,72.90
2022-08-09T20:46:43.302Z,71.00
2022-08-09T20:49:11.338Z,72.10
2022-08-09T20:51:50.484Z,72.00
2022-08-09T20:54:24.775Z,72.50
2022-08-09T20:56:57.817Z,72.50
2022-08-09T21:00:30.825Z,72.60
2022-08-09T21:02:23.761Z,73.10
2022-08-09T21:05:54.869Z,72.20
2022-08-09T21:07:50.207Z,73.10
2022-08-09T21:10:24.185Z,73.20
2022-08-09T21:13:03.857Z,74.50
2022-08-09T21:15:37.701Z,73.60
2022-08-09T21:18:27.609Z,74.10
2022-08-09T21:21:01.734Z,74.40
2022-08-09T21:23:51.675Z,74.50
2022-08-09T21:26:24.764Z,74.50
2022-08-09T21:28:57.671Z,76.60
2022-08-09T21:31:48.520Z,74.80
2022-08-09T21:34:28.617Z,75.80
2022-08-09T21:37:02.337Z,75.70
2022-08-09T21:39:41.700Z,76.90
2022-08-09T21:42:16.940Z,76.00
2022-08-09T21:44:49.840Z,77.00
2022-08-09T21:47:23.260Z,76.60
2022-08-09T21:49:56.196Z,78.40
2022-08-09T21:52:29.950Z,77.30
2022-08-09T21:55:04.746Z,76.70
2022-08-09T21:57:59.071Z,77.90
2022-08-09T22:00:33.727Z,77.40
2022-08-09T22:03:19.319Z,79.80
2022-08-09T22:05:54.249Z,80.00
2022-08-09T22:08:27.322Z,80.30
2022-08-09T22:11:49.205Z,79.20
2022-08-09T22:13:53.686Z,80.10
2022-08-09T22:16:26.680Z,80.00
2022-08-09T22:19:01.223Z,80.50
2022-08-09T22:21:49.623Z,81.10
2022-08-09T22:24:24.915Z,80.70
2022-08-09T22:26:58.033Z,81.10
2022-08-09T22:29:34.480Z,81.30
2022-08-09T22:32:29.924Z,81.80
2022-08-09T22:36:03.226Z,81.60
2022-08-09T22:38:07.316Z,82.20
2022-08-09T22:40:49.244Z,81.90
2022-08-09T22:44:01.368Z,82.10
2022-08-09T22:48:10.696Z,82.80
2022-08-09T22:49:16.719Z,82.20
2022-08-09T22:51:56.804Z,82.10
2022-08-09T22:54:30.466Z,82.80
2022-08-09T22:57:04.124Z,83.70
2022-08-09T22:59:56.229Z,84.00
2022-08-09T23:02:29.917Z,83.60
2022-08-09T23:05:02.904Z,84.80
2022-08-09T23:08:27.394Z,84.20
2022-08-09T23:11:03.055Z,84.40
2022-08-09T23:13:36.166Z,85.20
2022-08-09T23:16:09.333Z,85.90
2022-08-09T23:18:42.904Z,86.30
2022-08-09T23:21:27.685Z,86.30
2022-08-09T23:24:07.278Z,87.20
2022-08-09T23:26:40.989Z,87.20
2022-08-09T23:29:14.127Z,87.60
2022-08-09T23:31:51.256Z,86.60
2022-08-09T23:34:26.844Z,87.70
2022-08-09T23:37:00.385Z,87.70
2022-08-09T23:39:33.389Z,87.80
2022-08-09T23:42:06.531Z,87.40
2022-08-09T23:44:39.473Z,88.20
2022-08-09T23:47:12.753Z,87.70
2022-08-09T23:49:45.725Z,87.50
2022-08-09T23:52:18.752Z,88.10
2022-08-09T23:54:57.360Z,88.60
2022-08-09T23:57:30.336Z,88.90
